sensor_id;sensor_type;location;lat;lon;timestamp;P1;P2;P0
55518;PMS5003;41724;51.176;-0.708;2023-04-03T00:00:42;10;9;
55518;PMS5003;41724;51.176;-0.708;2023-04-03T00:03:09;5;5;
55518;PMS5003;41724;51.176;-0.708;2023-04-03T00:05:36;9;8;
55518;PMS5003;41724;51.176;-0.708;2023-04-03T00:08:04;10;9;
55518;PMS5003;41724;51.176;-0.708;2023-04-03T00:10:31;5;5;
55518;PMS5003;41724;51.176;-0.708;2023-04-03T00:12:58;6;6;
55518;PMS5003;41724;51.176;-0.708;2023-04-03T00:15:25;9;9;
55518;PMS5003;41724;51.176;-0.708;2023-04-03T00:17:53;10;8;
55518;PMS5003;41724;51.176;-0.708;2023-04-03T00:20:20;9;8;
55518;PMS5003;41724;51.176;-0.708;2023-04-03T00:22:47;13;12;
55518;PMS5003;41724;51.176;-0.708;2023-04-03T00:25:14;9;8;
55518;PMS5003;41724;51.176;-0.708;2023-04-03T00:27:41;13;12;
55518;PMS5003;41724;51.176;-0.708;2023-04-03T00:30:09;20;19;
55518;PMS5003;41724;51.176;-0.708;2023-04-03T00:32:40;25;20;
55518;PMS5003;41724;51.176;-0.708;2023-04-03T00:35:08;31;26;
55518;PMS5003;41724;51.176;-0.708;2023-04-03T00:37:36;27;26;
55518;PMS5003;41724;51.176;-0.708;2023-04-03T00:40:03;19;15;
55518;PMS5003;41724;51.176;-0.708;2023-04-03T00:42:32;16;16;
55518;PMS5003;41724;51.176;-0.708;2023-04-03T00:45:33;15;10;
55518;PMS5003;41724;51.176;-0.708;2023-04-03T00:48:03;17;16;
55518;PMS5003;41724;51.176;-0.708;2023-04-03T00:50:34;16;15;
55518;PMS5003;41724;51.176;-0.708;2023-04-03T00:53:04;24;20;
55518;PMS5003;41724;51.176;-0.708;2023-04-03T00:55:34;17;15;
55518;PMS5003;41724;51.176;-0.708;2023-04-03T00:58:03;13;12;
55518;PMS5003;41724;51.176;-0.708;2023-04-03T01:00:32;10;10;
55518;PMS5003;41724;51.176;-0.708;2023-04-03T01:03:00;11;11;
55518;PMS5003;41724;51.176;-0.708;2023-04-03T01:05:27;13;11;
55518;PMS5003;41724;51.176;-0.708;2023-04-03T01:07:55;12;11;
55518;PMS5003;41724;51.176;-0.708;2023-04-03T01:10:24;14;11;
55518;PMS5003;41724;51.176;-0.708;2023-04-03T01:12:51;11;10;
55518;PMS5003;41724;51.176;-0.708;2023-04-03T01:15:19;11;11;
55518;PMS5003;41724;51.176;-0.708;2023-04-03T01:17:48;12;11;
55518;PMS5003;41724;51.176;-0.708;2023-04-03T01:21:28;9;9;
55518;PMS5003;41724;51.176;-0.708;2023-04-03T01:24:22;11;8;
55518;PMS5003;41724;51.176;-0.708;2023-04-03T01:26:58;11;10;
55518;PMS5003;41724;51.176;-0.708;2023-04-03T01:29:27;8;8;
55518;PMS5003;41724;51.176;-0.708;2023-04-03T01:31:55;9;9;
55518;PMS5003;41724;51.176;-0.708;2023-04-03T01:34:24;10;9;
55518;PMS5003;41724;51.176;-0.708;2023-04-03T01:36:51;9;9;
55518;PMS5003;41724;51.176;-0.708;2023-04-03T01:39:18;10;10;
55518;PMS5003;41724;51.176;-0.708;2023-04-03T01:41:46;9;9;
55518;PMS5003;41724;51.176;-0.708;2023-04-03T01:44:14;14;14;
55518;PMS5003;41724;51.176;-0.708;2023-04-03T01:46:41;11;11;
55518;PMS5003;41724;51.176;-0.708;2023-04-03T01:49:08;12;11;
55518;PMS5003;41724;51.176;-0.708;2023-04-03T01:51:36;12;11;
55518;PMS5003;41724;51.176;-0.708;2023-04-03T01:54:03;12;10;
55518;PMS5003;41724;51.176;-0.708;2023-04-03T01:56:31;14;11;
55518;PMS5003;41724;51.176;-0.708;2023-04-03T01:58:58;11;11;
55518;PMS5003;41724;51.176;-0.708;2023-04-03T02:01:25;11;11;
55518;PMS5003;41724;51.176;-0.708;2023-04-03T02:03:52;13;11;
55518;PMS5003;41724;51.176;-0.708;2023-04-03T02:06:20;10;10;
55518;PMS5003;41724;51.176;-0.708;2023-04-03T02:08:47;11;11;
55518;PMS5003;41724;51.176;-0.708;2023-04-03T02:11:14;10;10;
55518;PMS5003;41724;51.176;-0.708;2023-04-03T02:13:41;9;9;
55518;PMS5003;41724;51.176;-0.708;2023-04-03T02:16:09;11;10;
55518;PMS5003;41724;51.176;-0.708;2023-04-03T02:18:37;12;11;
55518;PMS5003;41724;51.176;-0.708;2023-04-03T02:21:04;10;9;
55518;PMS5003;41724;51.176;-0.708;2023-04-03T02:23:31;11;10;
55518;PMS5003;41724;51.176;-0.708;2023-04-03T02:26:06;14;14;
55518;PMS5003;41724;51.176;-0.708;2023-04-03T02:28:35;9;8;
55518;PMS5003;41724;51.176;-0.708;2023-04-03T02:31:03;8;8;
55518;PMS5003;41724;51.176;-0.708;2023-04-03T02:33:32;7;7;
55518;PMS5003;41724;51.176;-0.708;2023-04-03T02:35:59;11;11;
55518;PMS5003;41724;51.176;-0.708;2023-04-03T02:38:27;8;8;
55518;PMS5003;41724;51.176;-0.708;2023-04-03T02:40:59;8;7;
55518;PMS5003;41724;51.176;-0.708;2023-04-03T02:43:27;5;5;
55518;PMS5003;41724;51.176;-0.708;2023-04-03T02:45:54;7;5;
55518;PMS5003;41724;51.176;-0.708;2023-04-03T02:48:22;11;9;
55518;PMS5003;41724;51.176;-0.708;2023-04-03T02:50:49;7;5;
55518;PMS5003;41724;51.176;-0.708;2023-04-03T02:53:17;8;8;
55518;PMS5003;41724;51.176;-0.708;2023-04-03T02:55:44;5;5;
55518;PMS5003;41724;51.176;-0.708;2023-04-03T02:58:12;7;5;
55518;PMS5003;41724;51.176;-0.708;2023-04-03T03:00:39;9;8;
55518;PMS5003;41724;51.176;-0.708;2023-04-03T03:03:06;5;4;
55518;PMS5003;41724;51.176;-0.708;2023-04-03T03:05:33;10;10;
55518;PMS5003;41724;51.176;-0.708;2023-04-03T03:08:00;5;4;
55518;PMS5003;41724;51.176;-0.708;2023-04-03T03:10:27;10;8;
55518;PMS5003;41724;51.176;-0.708;2023-04-03T03:12:54;8;7;
55518;PMS5003;41724;51.176;-0.708;2023-04-03T03:15:22;6;6;
55518;PMS5003;41724;51.176;-0.708;2023-04-03T03:17:49;8;8;
55518;PMS5003;41724;51.176;-0.708;2023-04-03T03:20:17;10;9;
55518;PMS5003;41724;51.176;-0.708;2023-04-03T03:22:44;8;8;
55518;PMS5003;41724;51.176;-0.708;2023-04-03T03:25:11;8;8;
55518;PMS5003;41724;51.176;-0.708;2023-04-03T03:27:38;9;8;
55518;PMS5003;41724;51.176;-0.708;2023-04-03T03:30:07;9;9;
55518;PMS5003;41724;51.176;-0.708;2023-04-03T03:32:34;6;6;
55518;PMS5003;41724;51.176;-0.708;2023-04-03T03:35:02;7;7;
55518;PMS5003;41724;51.176;-0.708;2023-04-03T03:37:29;4;4;
55518;PMS5003;41724;51.176;-0.708;2023-04-03T03:39:57;7;7;
55518;PMS5003;41724;51.176;-0.708;2023-04-03T03:42:24;7;7;
55518;PMS5003;41724;51.176;-0.708;2023-04-03T03:44:52;6;6;
55518;PMS5003;41724;51.176;-0.708;2023-04-03T03:47:19;7;5;
55518;PMS5003;41724;51.176;-0.708;2023-04-03T03:49:46;7;7;
55518;PMS5003;41724;51.176;-0.708;2023-04-03T03:52:14;8;7;
55518;PMS5003;41724;51.176;-0.708;2023-04-03T03:54:41;4;4;
55518;PMS5003;41724;51.176;-0.708;2023-04-03T03:57:09;4;4;
55518;PMS5003;41724;51.176;-0.708;2023-04-03T03:59:36;5;5;
55518;PMS5003;41724;51.176;-0.708;2023-04-03T04:02:03;7;7;
55518;PMS5003;41724;51.176;-0.708;2023-04-03T04:04:31;4;4;
55518;PMS5003;41724;51.176;-0.708;2023-04-03T04:06:58;6;4;
55518;PMS5003;41724;51.176;-0.708;2023-04-03T04:09:26;7;7;
55518;PMS5003;41724;51.176;-0.708;2023-04-03T04:11:53;4;4;
55518;PMS5003;41724;51.176;-0.708;2023-04-03T04:14:21;8;8;
55518;PMS5003;41724;51.176;-0.708;2023-04-03T04:16:48;9;8;
55518;PMS5003;41724;51.176;-0.708;2023-04-03T04:19:15;8;8;
55518;PMS5003;41724;51.176;-0.708;2023-04-03T04:21:43;4;4;
55518;PMS5003;41724;51.176;-0.708;2023-04-03T04:24:10;4;4;
55518;PMS5003;41724;51.176;-0.708;2023-04-03T04:26:37;7;4;
55518;PMS5003;41724;51.176;-0.708;2023-04-03T04:29:05;7;4;
55518;PMS5003;41724;51.176;-0.708;2023-04-03T04:31:32;6;6;
55518;PMS5003;41724;51.176;-0.708;2023-04-03T04:33:59;6;4;
55518;PMS5003;41724;51.176;-0.708;2023-04-03T04:36:27;6;6;
55518;PMS5003;41724;51.176;-0.708;2023-04-03T04:38:55;4;3;
55518;PMS5003;41724;51.176;-0.708;2023-04-03T04:41:21;4;4;
55518;PMS5003;41724;51.176;-0.708;2023-04-03T04:43:49;7;6;
55518;PMS5003;41724;51.176;-0.708;2023-04-03T04:46:18;6;4;
55518;PMS5003;41724;51.176;-0.708;2023-04-03T04:48:45;4;4;
55518;PMS5003;41724;51.176;-0.708;2023-04-03T04:51:13;7;7;
55518;PMS5003;41724;51.176;-0.708;2023-04-03T04:53:41;9;8;
55518;PMS5003;41724;51.176;-0.708;2023-04-03T04:56:08;9;8;
55518;PMS5003;41724;51.176;-0.708;2023-04-03T04:58:36;6;6;
55518;PMS5003;41724;51.176;-0.708;2023-04-03T05:01:04;6;6;
55518;PMS5003;41724;51.176;-0.708;2023-04-03T05:03:33;4;4;
55518;PMS5003;41724;51.176;-0.708;2023-04-03T05:06:00;8;8;
55518;PMS5003;41724;51.176;-0.708;2023-04-03T05:08:28;4;3;
55518;PMS5003;41724;51.176;-0.708;2023-04-03T05:10:55;7;7;
55518;PMS5003;41724;51.176;-0.708;2023-04-03T05:13:23;6;4;
55518;PMS5003;41724;51.176;-0.708;2023-04-03T05:15:50;6;6;
55518;PMS5003;41724;51.176;-0.708;2023-04-03T05:18:18;6;6;
55518;PMS5003;41724;51.176;-0.708;2023-04-03T05:20:45;6;4;
55518;PMS5003;41724;51.176;-0.708;2023-04-03T05:23:15;4;3;
55518;PMS5003;41724;51.176;-0.708;2023-04-03T05:25:43;6;6;
55518;PMS5003;41724;51.176;-0.708;2023-04-03T05:28:10;4;4;
55518;PMS5003;41724;51.176;-0.708;2023-04-03T05:30:37;4;4;
55518;PMS5003;41724;51.176;-0.708;2023-04-03T05:33:04;3;3;
55518;PMS5003;41724;51.176;-0.708;2023-04-03T05:35:32;6;4;
55518;PMS5003;41724;51.176;-0.708;2023-04-03T05:38:02;6;4;
55518;PMS5003;41724;51.176;-0.708;2023-04-03T05:40:29;6;6;
55518;PMS5003;41724;51.176;-0.708;2023-04-03T05:42:57;6;3;
55518;PMS5003;41724;51.176;-0.708;2023-04-03T05:45:24;4;3;
55518;PMS5003;41724;51.176;-0.708;2023-04-03T05:47:51;7;6;
55518;PMS5003;41724;51.176;-0.708;2023-04-03T05:50:19;6;6;
55518;PMS5003;41724;51.176;-0.708;2023-04-03T05:52:47;6;4;
55518;PMS5003;41724;51.176;-0.708;2023-04-03T05:55:16;6;6;
55518;PMS5003;41724;51.176;-0.708;2023-04-03T05:57:43;6;6;
55518;PMS5003;41724;51.176;-0.708;2023-04-03T06:00:12;7;6;
55518;PMS5003;41724;51.176;-0.708;2023-04-03T06:02:40;6;6;
55518;PMS5003;41724;51.176;-0.708;2023-04-03T06:05:08;8;7;
55518;PMS5003;41724;51.176;-0.708;2023-04-03T06:07:35;4;4;
55518;PMS5003;41724;51.176;-0.708;2023-04-03T06:10:03;4;4;
55518;PMS5003;41724;51.176;-0.708;2023-04-03T06:12:31;3;3;
55518;PMS5003;41724;51.176;-0.708;2023-04-03T06:14:58;8;7;
55518;PMS5003;41724;51.176;-0.708;2023-04-03T06:17:26;6;4;
55518;PMS5003;41724;51.176;-0.708;2023-04-03T06:19:53;6;4;
55518;PMS5003;41724;51.176;-0.708;2023-04-03T06:22:20;4;3;
55518;PMS5003;41724;51.176;-0.708;2023-04-03T06:24:48;4;3;
55518;PMS5003;41724;51.176;-0.708;2023-04-03T06:27:15;6;6;
55518;PMS5003;41724;51.176;-0.708;2023-04-03T06:29:42;7;7;
55518;PMS5003;41724;51.176;-0.708;2023-04-03T06:32:10;7;7;
55518;PMS5003;41724;51.176;-0.708;2023-04-03T06:34:37;4;3;
55518;PMS5003;41724;51.176;-0.708;2023-04-03T06:37:05;4;4;
55518;PMS5003;41724;51.176;-0.708;2023-04-03T06:39:32;5;5;
55518;PMS5003;41724;51.176;-0.708;2023-04-03T06:41:59;7;5;
55518;PMS5003;41724;51.176;-0.708;2023-04-03T06:44:27;3;3;
55518;PMS5003;41724;51.176;-0.708;2023-04-03T06:46:54;4;4;
55518;PMS5003;41724;51.176;-0.708;2023-04-03T06:49:22;9;7;
55518;PMS5003;41724;51.176;-0.708;2023-04-03T06:51:49;7;7;
55518;PMS5003;41724;51.176;-0.708;2023-04-03T06:54:17;6;6;
55518;PMS5003;41724;51.176;-0.708;2023-04-03T06:56:44;5;5;
55518;PMS5003;41724;51.176;-0.708;2023-04-03T06:59:11;7;5;
55518;PMS5003;41724;51.176;-0.708;2023-04-03T07:01:59;9;8;
55518;PMS5003;41724;51.176;-0.708;2023-04-03T07:04:27;13;11;
55518;PMS5003;41724;51.176;-0.708;2023-04-03T07:06:54;9;9;
55518;PMS5003;41724;51.176;-0.708;2023-04-03T07:09:21;9;7;
55518;PMS5003;41724;51.176;-0.708;2023-04-03T07:11:49;5;5;
55518;PMS5003;41724;51.176;-0.708;2023-04-03T07:14:16;8;8;
55518;PMS5003;41724;51.176;-0.708;2023-04-03T07:16:43;8;7;
55518;PMS5003;41724;51.176;-0.708;2023-04-03T07:19:11;4;4;
55518;PMS5003;41724;51.176;-0.708;2023-04-03T07:21:38;9;9;
55518;PMS5003;41724;51.176;-0.708;2023-04-03T07:24:05;9;9;
55518;PMS5003;41724;51.176;-0.708;2023-04-03T07:26:32;5;5;
55518;PMS5003;41724;51.176;-0.708;2023-04-03T07:29:00;9;9;
55518;PMS5003;41724;51.176;-0.708;2023-04-03T07:31:27;8;6;
55518;PMS5003;41724;51.176;-0.708;2023-04-03T07:33:54;12;10;
55518;PMS5003;41724;51.176;-0.708;2023-04-03T07:36:22;10;10;
55518;PMS5003;41724;51.176;-0.708;2023-04-03T07:38:49;8;8;
55518;PMS5003;41724;51.176;-0.708;2023-04-03T07:41:17;11;10;
55518;PMS5003;41724;51.176;-0.708;2023-04-03T07:43:45;9;9;
55518;PMS5003;41724;51.176;-0.708;2023-04-03T07:46:12;6;6;
55518;PMS5003;41724;51.176;-0.708;2023-04-03T07:48:39;7;7;
55518;PMS5003;41724;51.176;-0.708;2023-04-03T07:51:06;11;10;
55518;PMS5003;41724;51.176;-0.708;2023-04-03T07:53:34;7;6;
55518;PMS5003;41724;51.176;-0.708;2023-04-03T07:56:01;6;6;
55518;PMS5003;41724;51.176;-0.708;2023-04-03T07:58:29;7;6;
55518;PMS5003;41724;51.176;-0.708;2023-04-03T08:00:56;10;10;
55518;PMS5003;41724;51.176;-0.708;2023-04-03T08:03:23;9;7;
55518;PMS5003;41724;51.176;-0.708;2023-04-03T08:05:50;14;13;
55518;PMS5003;41724;51.176;-0.708;2023-04-03T08:08:18;9;9;
55518;PMS5003;41724;51.176;-0.708;2023-04-03T08:10:48;8;7;
55518;PMS5003;41724;51.176;-0.708;2023-04-03T08:13:16;9;8;
55518;PMS5003;41724;51.176;-0.708;2023-04-03T08:15:44;12;11;
55518;PMS5003;41724;51.176;-0.708;2023-04-03T08:18:12;6;6;
55518;PMS5003;41724;51.176;-0.708;2023-04-03T08:20:39;8;8;
55518;PMS5003;41724;51.176;-0.708;2023-04-03T08:23:06;9;9;
55518;PMS5003;41724;51.176;-0.708;2023-04-03T08:25:38;10;10;
55518;PMS5003;41724;51.176;-0.708;2023-04-03T08:28:06;10;10;
55518;PMS5003;41724;51.176;-0.708;2023-04-03T08:30:34;14;11;
55518;PMS5003;41724;51.176;-0.708;2023-04-03T08:33:01;11;10;
55518;PMS5003;41724;51.176;-0.708;2023-04-03T08:35:28;12;11;
55518;PMS5003;41724;51.176;-0.708;2023-04-03T08:37:55;7;7;
55518;PMS5003;41724;51.176;-0.708;2023-04-03T08:40:22;9;9;
55518;PMS5003;41724;51.176;-0.708;2023-04-03T08:42:52;11;9;
55518;PMS5003;41724;51.176;-0.708;2023-04-03T08:45:32;12;11;
55518;PMS5003;41724;51.176;-0.708;2023-04-03T08:48:12;16;14;
55518;PMS5003;41724;51.176;-0.708;2023-04-03T08:50:46;12;11;
55518;PMS5003;41724;51.176;-0.708;2023-04-03T08:53:17;19;16;
55518;PMS5003;41724;51.176;-0.708;2023-04-03T08:55:47;14;14;
55518;PMS5003;41724;51.176;-0.708;2023-04-03T08:58:16;11;11;
55518;PMS5003;41724;51.176;-0.708;2023-04-03T09:00:51;10;10;
55518;PMS5003;41724;51.176;-0.708;2023-04-03T09:03:23;16;14;
55518;PMS5003;41724;51.176;-0.708;2023-04-03T09:05:53;12;10;
55518;PMS5003;41724;51.176;-0.708;2023-04-03T09:08:26;18;13;
55518;PMS5003;41724;51.176;-0.708;2023-04-03T09:10:59;14;12;
55518;PMS5003;41724;51.176;-0.708;2023-04-03T09:13:35;12;11;
55518;PMS5003;41724;51.176;-0.708;2023-04-03T09:16:13;14;13;
55518;PMS5003;41724;51.176;-0.708;2023-04-03T09:18:48;12;12;
55518;PMS5003;41724;51.176;-0.708;2023-04-03T09:21:24;17;16;
55518;PMS5003;41724;51.176;-0.708;2023-04-03T09:23:58;13;11;
55518;PMS5003;41724;51.176;-0.708;2023-04-03T09:26:28;17;16;
55518;PMS5003;41724;51.176;-0.708;2023-04-03T09:29:00;14;13;
55518;PMS5003;41724;51.176;-0.708;2023-04-03T09:31:35;13;13;
55518;PMS5003;41724;51.176;-0.708;2023-04-03T09:34:06;16;16;
55518;PMS5003;41724;51.176;-0.708;2023-04-03T09:36:42;17;15;
55518;PMS5003;41724;51.176;-0.708;2023-04-03T09:39:12;14;13;
55518;PMS5003;41724;51.176;-0.708;2023-04-03T09:41:42;14;13;
55518;PMS5003;41724;51.176;-0.708;2023-04-03T09:44:24;16;15;
55518;PMS5003;41724;51.176;-0.708;2023-04-03T09:46:53;16;16;
55518;PMS5003;41724;51.176;-0.708;2023-04-03T09:49:21;18;17;
55518;PMS5003;41724;51.176;-0.708;2023-04-03T09:51:48;20;20;
55518;PMS5003;41724;51.176;-0.708;2023-04-03T09:54:32;17;17;
55518;PMS5003;41724;51.176;-0.708;2023-04-03T09:57:01;18;17;
55518;PMS5003;41724;51.176;-0.708;2023-04-03T09:59:33;23;21;
55518;PMS5003;41724;51.176;-0.708;2023-04-03T10:02:20;18;17;
55518;PMS5003;41724;51.176;-0.708;2023-04-03T10:04:54;17;17;
55518;PMS5003;41724;51.176;-0.708;2023-04-03T10:07:30;17;15;
55518;PMS5003;41724;51.176;-0.708;2023-04-03T10:10:01;23;22;
55518;PMS5003;41724;51.176;-0.708;2023-04-03T10:12:43;20;19;
55518;PMS5003;41724;51.176;-0.708;2023-04-03T10:15:11;16;14;
55518;PMS5003;41724;51.176;-0.708;2023-04-03T10:17:46;21;21;
55518;PMS5003;41724;51.176;-0.708;2023-04-03T10:20:26;19;17;
55518;PMS5003;41724;51.176;-0.708;2023-04-03T10:23:01;20;19;
55518;PMS5003;41724;51.176;-0.708;2023-04-03T10:25:42;18;18;
55518;PMS5003;41724;51.176;-0.708;2023-04-03T10:28:19;22;22;
55518;PMS5003;41724;51.176;-0.708;2023-04-03T10:31:01;19;19;
55518;PMS5003;41724;51.176;-0.708;2023-04-03T10:33:39;19;19;
55518;PMS5003;41724;51.176;-0.708;2023-04-03T10:36:19;24;23;
55518;PMS5003;41724;51.176;-0.708;2023-04-03T10:38:59;26;25;
55518;PMS5003;41724;51.176;-0.708;2023-04-03T10:41:36;22;20;
55518;PMS5003;41724;51.176;-0.708;2023-04-03T10:44:16;18;18;
55518;PMS5003;41724;51.176;-0.708;2023-04-03T10:46:55;18;18;
55518;PMS5003;41724;51.176;-0.708;2023-04-03T10:49:32;18;18;
55518;PMS5003;41724;51.176;-0.708;2023-04-03T10:52:14;19;17;
55518;PMS5003;41724;51.176;-0.708;2023-04-03T10:54:51;15;15;
55518;PMS5003;41724;51.176;-0.708;2023-04-03T10:57:26;18;17;
55518;PMS5003;41724;51.176;-0.708;2023-04-03T10:59:55;17;17;
55518;PMS5003;41724;51.176;-0.708;2023-04-03T11:02:26;19;17;
55518;PMS5003;41724;51.176;-0.708;2023-04-03T11:02:38;19;17;
55518;PMS5003;41724;51.176;-0.708;2023-04-03T11:05:14;24;23;
55518;PMS5003;41724;51.176;-0.708;2023-04-03T11:07:47;22;22;
55518;PMS5003;41724;51.176;-0.708;2023-04-03T11:10:21;23;21;
55518;PMS5003;41724;51.176;-0.708;2023-04-03T11:12:52;23;22;
55518;PMS5003;41724;51.176;-0.708;2023-04-03T11:15:26;22;21;
55518;PMS5003;41724;51.176;-0.708;2023-04-03T11:17:58;21;20;
55518;PMS5003;41724;51.176;-0.708;2023-04-03T11:20:31;19;18;
55518;PMS5003;41724;51.176;-0.708;2023-04-03T11:23:00;20;20;
55518;PMS5003;41724;51.176;-0.708;2023-04-03T11:25:30;18;17;
55518;PMS5003;41724;51.176;-0.708;2023-04-03T11:28:02;19;17;
55518;PMS5003;41724;51.176;-0.708;2023-04-03T11:30:32;19;18;
55518;PMS5003;41724;51.176;-0.708;2023-04-03T11:33:13;19;19;
55518;PMS5003;41724;51.176;-0.708;2023-04-03T11:35:49;21;21;
55518;PMS5003;41724;51.176;-0.708;2023-04-03T11:38:21;18;18;
55518;PMS5003;41724;51.176;-0.708;2023-04-03T11:40:55;20;20;
55518;PMS5003;41724;51.176;-0.708;2023-04-03T11:43:24;18;17;
55518;PMS5003;41724;51.176;-0.708;2023-04-03T11:45:54;17;17;
55518;PMS5003;41724;51.176;-0.708;2023-04-03T11:48:55;17;16;
55518;PMS5003;41724;51.176;-0.708;2023-04-03T11:51:54;19;19;
55518;PMS5003;41724;51.176;-0.708;2023-04-03T11:54:53;16;16;
55518;PMS5003;41724;51.176;-0.708;2023-04-03T11:57:23;18;18;
55518;PMS5003;41724;51.176;-0.708;2023-04-03T12:01:42;18;18;
55518;PMS5003;41724;51.176;-0.708;2023-04-03T12:04:12;16;16;
55518;PMS5003;41724;51.176;-0.708;2023-04-03T12:06:42;16;15;
55518;PMS5003;41724;51.176;-0.708;2023-04-03T12:09:56;19;17;
55518;PMS5003;41724;51.176;-0.708;2023-04-03T12:12:28;14;13;
55518;PMS5003;41724;51.176;-0.708;2023-04-03T12:15:17;15;15;
55518;PMS5003;41724;51.176;-0.708;2023-04-03T12:17:47;19;19;
55518;PMS5003;41724;51.176;-0.708;2023-04-03T12:20:52;16;16;
55518;PMS5003;41724;51.176;-0.708;2023-04-03T12:23:23;13;13;
55518;PMS5003;41724;51.176;-0.708;2023-04-03T12:25:52;15;15;
55518;PMS5003;41724;51.176;-0.708;2023-04-03T12:28:29;16;16;
55518;PMS5003;41724;51.176;-0.708;2023-04-03T12:31:03;16;15;
55518;PMS5003;41724;51.176;-0.708;2023-04-03T12:33:33;18;16;
55518;PMS5003;41724;51.176;-0.708;2023-04-03T12:36:15;15;15;
55518;PMS5003;41724;51.176;-0.708;2023-04-03T12:38:58;15;14;
55518;PMS5003;41724;51.176;-0.708;2023-04-03T12:41:43;16;16;
55518;PMS5003;41724;51.176;-0.708;2023-04-03T12:44:22;15;14;
55518;PMS5003;41724;51.176;-0.708;2023-04-03T12:47:21;11;11;
55518;PMS5003;41724;51.176;-0.708;2023-04-03T12:49:54;16;14;
55518;PMS5003;41724;51.176;-0.708;2023-04-03T12:52:28;14;14;
55518;PMS5003;41724;51.176;-0.708;2023-04-03T12:54:59;33;33;
55518;PMS5003;41724;51.176;-0.708;2023-04-03T12:57:27;23;23;
55518;PMS5003;41724;51.176;-0.708;2023-04-03T12:59:54;16;15;
55518;PMS5003;41724;51.176;-0.708;2023-04-03T13:02:23;24;20;
55518;PMS5003;41724;51.176;-0.708;2023-04-03T13:04:52;30;26;
55518;PMS5003;41724;51.176;-0.708;2023-04-03T13:07:22;28;28;
55518;PMS5003;41724;51.176;-0.708;2023-04-03T13:09:59;16;16;
55518;PMS5003;41724;51.176;-0.708;2023-04-03T13:12:28;14;14;
55518;PMS5003;41724;51.176;-0.708;2023-04-03T13:14:56;13;11;
55518;PMS5003;41724;51.176;-0.708;2023-04-03T13:17:25;12;12;
55518;PMS5003;41724;51.176;-0.708;2023-04-03T13:19:54;15;14;
55518;PMS5003;41724;51.176;-0.708;2023-04-03T13:22:25;11;11;
55518;PMS5003;41724;51.176;-0.708;2023-04-03T13:24:55;13;13;
55518;PMS5003;41724;51.176;-0.708;2023-04-03T13:27:25;12;10;
55518;PMS5003;41724;51.176;-0.708;2023-04-03T13:29:57;11;11;
55518;PMS5003;41724;51.176;-0.708;2023-04-03T13:32:26;13;12;
55518;PMS5003;41724;51.176;-0.708;2023-04-03T13:34:55;10;9;
55518;PMS5003;41724;51.176;-0.708;2023-04-03T13:37:24;10;9;
55518;PMS5003;41724;51.176;-0.708;2023-04-03T13:39:59;8;7;
55518;PMS5003;41724;51.176;-0.708;2023-04-03T13:42:28;12;10;
55518;PMS5003;41724;51.176;-0.708;2023-04-03T13:45:17;9;8;
55518;PMS5003;41724;51.176;-0.708;2023-04-03T13:47:47;7;7;
55518;PMS5003;41724;51.176;-0.708;2023-04-03T13:50:17;8;8;
55518;PMS5003;41724;51.176;-0.708;2023-04-03T13:52:47;9;9;
55518;PMS5003;41724;51.176;-0.708;2023-04-03T13:55:19;9;9;
55518;PMS5003;41724;51.176;-0.708;2023-04-03T13:57:52;10;10;
55518;PMS5003;41724;51.176;-0.708;2023-04-03T14:00:28;11;9;
55518;PMS5003;41724;51.176;-0.708;2023-04-03T14:02:58;9;9;
55518;PMS5003;41724;51.176;-0.708;2023-04-03T14:05:25;10;10;
55518;PMS5003;41724;51.176;-0.708;2023-04-03T14:07:53;8;8;
55518;PMS5003;41724;51.176;-0.708;2023-04-03T14:10:21;8;8;
55518;PMS5003;41724;51.176;-0.708;2023-04-03T14:12:48;6;6;
55518;PMS5003;41724;51.176;-0.708;2023-04-03T14:15:16;6;6;
55518;PMS5003;41724;51.176;-0.708;2023-04-03T14:17:46;7;7;
55518;PMS5003;41724;51.176;-0.708;2023-04-03T14:20:14;9;9;
55518;PMS5003;41724;51.176;-0.708;2023-04-03T14:22:43;8;8;
55518;PMS5003;41724;51.176;-0.708;2023-04-03T14:25:10;7;7;
55518;PMS5003;41724;51.176;-0.708;2023-04-03T14:27:38;10;9;
55518;PMS5003;41724;51.176;-0.708;2023-04-03T14:30:08;8;8;
55518;PMS5003;41724;51.176;-0.708;2023-04-03T14:32:40;8;7;
55518;PMS5003;41724;51.176;-0.708;2023-04-03T14:35:07;7;7;
55518;PMS5003;41724;51.176;-0.708;2023-04-03T14:37:35;10;9;
55518;PMS5003;41724;51.176;-0.708;2023-04-03T14:40:03;8;8;
55518;PMS5003;41724;51.176;-0.708;2023-04-03T14:42:33;9;8;
55518;PMS5003;41724;51.176;-0.708;2023-04-03T14:45:03;8;8;
55518;PMS5003;41724;51.176;-0.708;2023-04-03T14:47:43;7;7;
55518;PMS5003;41724;51.176;-0.708;2023-04-03T14:50:15;8;8;
55518;PMS5003;41724;51.176;-0.708;2023-04-03T14:52:50;8;8;
55518;PMS5003;41724;51.176;-0.708;2023-04-03T14:55:20;7;7;
55518;PMS5003;41724;51.176;-0.708;2023-04-03T14:57:49;7;7;
55518;PMS5003;41724;51.176;-0.708;2023-04-03T15:00:17;7;6;
55518;PMS5003;41724;51.176;-0.708;2023-04-03T15:02:46;7;7;
55518;PMS5003;41724;51.176;-0.708;2023-04-03T15:05:14;7;6;
55518;PMS5003;41724;51.176;-0.708;2023-04-03T15:07:43;7;6;
55518;PMS5003;41724;51.176;-0.708;2023-04-03T15:10:15;7;6;
55518;PMS5003;41724;51.176;-0.708;2023-04-03T15:12:45;7;6;
55518;PMS5003;41724;51.176;-0.708;2023-04-03T15:15:13;9;8;
55518;PMS5003;41724;51.176;-0.708;2023-04-03T15:17:42;6;6;
55518;PMS5003;41724;51.176;-0.708;2023-04-03T15:20:11;8;8;
55518;PMS5003;41724;51.176;-0.708;2023-04-03T15:22:40;8;8;
55518;PMS5003;41724;51.176;-0.708;2023-04-03T15:25:08;7;7;
55518;PMS5003;41724;51.176;-0.708;2023-04-03T15:27:36;6;6;
55518;PMS5003;41724;51.176;-0.708;2023-04-03T15:30:05;10;8;
55518;PMS5003;41724;51.176;-0.708;2023-04-03T15:32:34;10;10;
55518;PMS5003;41724;51.176;-0.708;2023-04-03T15:35:01;9;8;
55518;PMS5003;41724;51.176;-0.708;2023-04-03T15:37:28;12;9;
55518;PMS5003;41724;51.176;-0.708;2023-04-03T15:39:56;8;8;
55518;PMS5003;41724;51.176;-0.708;2023-04-03T15:42:23;9;9;
55518;PMS5003;41724;51.176;-0.708;2023-04-03T15:44:51;9;9;
55518;PMS5003;41724;51.176;-0.708;2023-04-03T15:47:18;10;8;
55518;PMS5003;41724;51.176;-0.708;2023-04-03T15:49:46;8;8;
55518;PMS5003;41724;51.176;-0.708;2023-04-03T15:52:13;8;7;
55518;PMS5003;41724;51.176;-0.708;2023-04-03T15:54:40;8;7;
55518;PMS5003;41724;51.176;-0.708;2023-04-03T15:57:08;9;9;
55518;PMS5003;41724;51.176;-0.708;2023-04-03T15:59:35;7;7;
55518;PMS5003;41724;51.176;-0.708;2023-04-03T16:02:03;9;8;
55518;PMS5003;41724;51.176;-0.708;2023-04-03T16:04:34;8;8;
55518;PMS5003;41724;51.176;-0.708;2023-04-03T16:07:02;8;8;
55518;PMS5003;41724;51.176;-0.708;2023-04-03T16:09:31;6;6;
55518;PMS5003;41724;51.176;-0.708;2023-04-03T16:11:59;6;6;
55518;PMS5003;41724;51.176;-0.708;2023-04-03T16:14:27;8;7;
55518;PMS5003;41724;51.176;-0.708;2023-04-03T16:16:54;8;7;
55518;PMS5003;41724;51.176;-0.708;2023-04-03T16:19:22;5;5;
55518;PMS5003;41724;51.176;-0.708;2023-04-03T16:21:49;8;7;
55518;PMS5003;41724;51.176;-0.708;2023-04-03T16:24:17;4;4;
55518;PMS5003;41724;51.176;-0.708;2023-04-03T16:26:44;9;8;
55518;PMS5003;41724;51.176;-0.708;2023-04-03T16:29:12;8;7;
55518;PMS5003;41724;51.176;-0.708;2023-04-03T16:31:39;5;5;
55518;PMS5003;41724;51.176;-0.708;2023-04-03T16:34:06;9;8;
55518;PMS5003;41724;51.176;-0.708;2023-04-03T16:36:33;7;7;
55518;PMS5003;41724;51.176;-0.708;2023-04-03T16:39:01;6;6;